Time;durP1;ratioP1;P1;durP2;ratioP2;P2;SDS_P1;SDS_P2;PMS_P1;PMS_P2;Temp;Humidity;BMP_temperature;BMP_pressure;BME280_temperature;BME280_humidity;BME280_pressure;Samples;Min_cycle;Max_cycle;Signal;HPM_P1;HPM_P2
2021/09/13 00:01:12;;;;;;;1.23;0.43;;;16.20;99.90;;;;;;4983014;28;20221;-83
2021/09/13 00:03:38;;;;;;;0.80;0.70;;;16.30;99.90;;;;;;4983458;28;20753;-85
2021/09/13 00:06:03;;;;;;;2.97;1.70;;;16.30;99.90;;;;;;4966585;28;20573;-82
2021/09/13 00:08:29;;;;;;;1.87;0.83;;;16.30;99.90;;;;;;4983677;28;20209;-81
2021/09/13 00:10:55;;;;;;;2.07;0.33;;;16.30;99.90;;;;;;4966162;28;20235;-83
2021/09/13 00:13:23;;;;;;;3.03;1.07;;;16.30;99.90;;;;;;4966366;28;20233;-81
2021/09/13 00:15:49;;;;;;;1.80;0.53;;;16.30;99.90;;;;;;4966396;28;20236;-81
2021/09/13 00:18:14;;;;;;;3.57;0.87;;;16.30;99.90;;;;;;4966732;28;20197;-82
2021/09/13 00:20:40;;;;;;;0.50;0.50;;;16.30;99.90;;;;;;4967300;28;20204;-82
2021/09/13 00:23:06;;;;;;;2.73;0.77;;;16.30;99.90;;;;;;4965909;28;21034;-82
2021/09/13 00:25:32;;;;;;;2.83;0.60;;;16.30;99.90;;;;;;4966760;28;20224;-82
2021/09/13 00:27:58;;;;;;;4.10;0.80;;;16.30;99.90;;;;;;4950868;28;20224;-82
2021/09/13 00:30:23;;;;;;;2.40;0.67;;;16.30;99.90;;;;;;4982715;28;20232;-82
2021/09/13 00:32:49;;;;;;;4.17;1.03;;;16.30;99.90;;;;;;4966765;28;20216;-82
2021/09/13 00:35:15;;;;;;;4.67;0.90;;;16.20;99.90;;;;;;4966562;28;20686;-83
2021/09/13 00:37:41;;;;;;;2.43;0.77;;;16.20;99.90;;;;;;4982414;28;20250;-82
2021/09/13 00:40:07;;;;;;;3.93;0.80;;;16.20;99.90;;;;;;4982204;28;21028;-84
2021/09/13 00:42:33;;;;;;;15.97;1.40;;;16.20;99.90;;;;;;4965998;28;20212;-81
2021/09/13 00:45:00;;;;;;;1.90;0.83;;;16.20;99.90;;;;;;4966113;28;20203;-82
2021/09/13 00:47:26;;;;;;;4.30;0.67;;;16.20;99.90;;;;;;4964809;28;20240;-82
2021/09/13 00:49:52;;;;;;;0.70;0.70;;;16.20;99.90;;;;;;4962559;28;20234;-81
2021/09/13 00:52:19;;;;;;;2.50;1.70;;;16.20;99.90;;;;;;4981251;28;20224;-81
2021/09/13 00:54:46;;;;;;;1.60;0.87;;;16.20;99.90;;;;;;4982175;28;20224;-82
2021/09/13 00:57:13;;;;;;;2.63;1.33;;;16.20;99.90;;;;;;4980997;28;20193;-83
2021/09/13 00:59:39;;;;;;;2.43;0.60;;;16.20;99.90;;;;;;4965866;28;20200;-83
2021/09/13 01:02:06;;;;;;;1.80;1.43;;;16.20;99.90;;;;;;4965680;28;21069;-83
2021/09/13 01:04:31;;;;;;;3.70;0.97;;;16.10;99.90;;;;;;4982277;28;20941;-82
2021/09/13 01:06:57;;;;;;;2.23;0.93;;;16.10;99.90;;;;;;4964874;28;20225;-82
2021/09/13 01:09:23;;;;;;;4.47;1.20;;;16.00;99.90;;;;;;4965776;28;20229;-83
2021/09/13 01:11:49;;;;;;;2.57;1.27;;;16.00;99.90;;;;;;4966552;28;20704;-82
2021/09/13 01:14:16;;;;;;;4.30;0.83;;;16.00;99.90;;;;;;4965657;28;20226;-82
2021/09/13 01:16:42;;;;;;;0.93;0.70;;;15.90;99.90;;;;;;4982208;28;20232;-84
2021/09/13 01:19:08;;;;;;;4.57;0.90;;;15.90;99.90;;;;;;4966374;28;20240;-82
2021/09/13 01:21:38;;;;;;;3.23;1.10;;;15.80;99.90;;;;;;4963431;28;20232;-83
2021/09/13 01:24:04;;;;;;;2.30;0.93;;;15.80;99.90;;;;;;4963912;28;20243;-82
2021/09/13 01:26:30;;;;;;;3.53;1.10;;;15.70;99.90;;;;;;4982542;28;20185;-82
2021/09/13 01:28:56;;;;;;;1.57;1.10;;;15.70;99.90;;;;;;4964825;28;20659;-83
2021/09/13 01:31:22;;;;;;;1.00;0.93;;;15.70;99.90;;;;;;4965482;28;20217;-83
2021/09/13 01:33:47;;;;;;;3.43;1.00;;;15.70;99.90;;;;;;4965458;28;20581;-82
2021/09/13 01:36:13;;;;;;;1.17;0.50;;;15.70;99.90;;;;;;4964850;28;20196;-82
2021/09/13 01:38:39;;;;;;;1.00;0.60;;;15.70;99.90;;;;;;4982519;28;20765;-83
2021/09/13 01:41:05;;;;;;;3.93;0.73;;;15.70;99.90;;;;;;4965232;28;20628;-83
2021/09/13 01:43:30;;;;;;;1.30;1.20;;;15.70;99.90;;;;;;4981811;28;20247;-84
2021/09/13 01:45:56;;;;;;;1.53;0.87;;;15.70;99.90;;;;;;4949496;28;20315;-83
2021/09/13 01:48:22;;;;;;;6.20;1.10;;;15.60;99.90;;;;;;4964644;28;20570;-83
2021/09/13 01:50:48;;;;;;;0.80;0.80;;;15.60;99.90;;;;;;4965407;28;20208;-83
2021/09/13 01:53:14;;;;;;;4.10;0.90;;;15.60;99.90;;;;;;4980649;28;21112;-83
2021/09/13 01:55:40;;;;;;;7.07;1.43;;;15.60;99.90;;;;;;4981843;28;20229;-84
2021/09/13 01:58:05;;;;;;;2.83;0.80;;;15.60;99.90;;;;;;4965193;28;20235;-83
2021/09/13 02:00:31;;;;;;;0.70;0.60;;;15.50;99.90;;;;;;4965083;28;20220;-83
2021/09/13 02:02:57;;;;;;;1.10;0.93;;;15.50;99.90;;;;;;4965500;28;20275;-83
2021/09/13 02:05:23;;;;;;;4.50;0.97;;;15.40;99.90;;;;;;4949255;28;20682;-83
2021/09/13 02:07:49;;;;;;;5.70;1.50;;;15.40;99.90;;;;;;4965354;28;20244;-84
2021/09/13 02:10:15;;;;;;;4.13;0.97;;;15.30;99.90;;;;;;4965342;28;20237;-82
2021/09/13 02:12:40;;;;;;;2.27;0.67;;;15.30;99.90;;;;;;4964817;28;20229;-83
2021/09/13 02:15:07;;;;;;;1.17;0.70;;;15.30;99.90;;;;;;4964556;28;20208;-83
2021/09/13 02:17:32;;;;;;;3.17;0.97;;;15.30;99.90;;;;;;4965326;28;20243;-83
2021/09/13 02:19:58;;;;;;;2.53;1.10;;;15.20;99.90;;;;;;4964421;28;20622;-83
2021/09/13 02:22:24;;;;;;;1.97;0.90;;;15.20;99.90;;;;;;4964122;28;20776;-83
2021/09/13 02:24:50;;;;;;;2.93;1.10;;;15.00;99.90;;;;;;4961066;28;20224;-86
2021/09/13 02:27:15;;;;;;;2.30;1.10;;;15.00;99.90;;;;;;4959879;28;20240;-84
2021/09/13 02:29:41;;;;;;;1.97;0.93;;;14.90;99.90;;;;;;4960276;28;20227;-85
2021/09/13 02:32:07;;;;;;;0.67;0.63;;;14.80;99.90;;;;;;4960097;28;20859;-83
2021/09/13 02:34:33;;;;;;;4.17;0.70;;;14.70;99.90;;;;;;4960168;28;20342;-84
2021/09/13 02:36:59;;;;;;;1.73;1.23;;;14.70;99.90;;;;;;4929139;28;20800;-83
2021/09/13 02:39:24;;;;;;;2.20;1.13;;;14.60;99.90;;;;;;4978386;28;20280;-82
2021/09/13 02:41:50;;;;;;;11.30;1.10;;;14.50;99.90;;;;;;4976660;28;20251;-83
2021/09/13 02:44:17;;;;;;;1.67;0.77;;;14.50;99.90;;;;;;4975618;28;20228;-82
2021/09/13 02:46:42;;;;;;;1.80;0.53;;;14.40;99.90;;;;;;4959656;28;20235;-82
2021/09/13 02:49:08;;;;;;;7.83;1.13;;;14.40;99.90;;;;;;4959085;28;20236;-83
2021/09/13 02:51:35;;;;;;;4.20;1.20;;;14.40;99.90;;;;;;4961050;28;20263;-84
2021/09/13 02:54:01;;;;;;;9.13;1.40;;;14.40;99.90;;;;;;4963746;28;20355;-83
2021/09/13 02:56:27;;;;;;;3.80;1.00;;;14.40;99.90;;;;;;4965897;28;21347;-81
2021/09/13 02:58:52;;;;;;;2.53;0.70;;;14.50;99.90;;;;;;4963836;28;20757;-83
2021/09/13 03:01:18;;;;;;;3.40;0.60;;;14.50;99.90;;;;;;4948212;28;20996;-82
2021/09/13 03:03:44;;;;;;;5.13;0.70;;;14.60;99.90;;;;;;4965630;28;20571;-82
2021/09/13 03:06:10;;;;;;;0.77;0.77;;;14.60;99.90;;;;;;4967395;28;20657;-82
2021/09/13 03:08:36;;;;;;;1.20;1.03;;;14.50;99.90;;;;;;4984751;28;20232;-83
2021/09/13 03:11:03;;;;;;;2.47;0.90;;;14.60;99.90;;;;;;4967349;28;20737;-81
2021/09/13 03:13:29;;;;;;;1.10;0.57;;;14.50;99.90;;;;;;4967867;28;20295;-81
2021/09/13 03:15:55;;;;;;;5.93;1.37;;;14.50;99.90;;;;;;4967912;28;20270;-83
2021/09/13 03:18:21;;;;;;;1.20;0.60;;;14.50;99.90;;;;;;4983830;28;20693;-81
2021/09/13 03:20:46;;;;;;;0.77;0.73;;;14.50;99.90;;;;;;4968359;28;21059;-83
2021/09/13 03:23:12;;;;;;;5.07;1.07;;;14.60;99.90;;;;;;4983837;28;20224;-83
2021/09/13 03:25:38;;;;;;;0.83;0.50;;;14.60;99.90;;;;;;4967983;28;20336;-82
2021/09/13 03:28:04;;;;;;;1.57;0.60;;;14.50;99.90;;;;;;4974431;28;21185;-82
2021/09/13 03:30:30;;;;;;;2.77;1.10;;;14.40;99.90;;;;;;4967242;28;20252;-83
2021/09/13 03:32:56;;;;;;;5.30;0.93;;;14.30;99.90;;;;;;4984129;28;20224;-85
2021/09/13 03:35:21;;;;;;;0.57;0.57;;;14.20;99.90;;;;;;4967445;28;20275;-82
2021/09/13 03:37:47;;;;;;;0.70;0.60;;;14.10;99.90;;;;;;4967028;28;20232;-82
2021/09/13 03:40:13;;;;;;;2.13;0.60;;;14.00;99.90;;;;;;4967108;28;20216;-82
2021/09/13 03:42:39;;;;;;;0.80;0.60;;;14.00;99.90;;;;;;4966986;28;20573;-81
2021/09/13 03:45:06;;;;;;;0.53;0.53;;;14.00;99.90;;;;;;4966789;28;20208;-82
2021/09/13 03:47:32;;;;;;;2.70;0.70;;;13.90;99.90;;;;;;4936214;28;20279;-84
2021/09/13 03:49:57;;;;;;;1.50;0.43;;;13.80;99.90;;;;;;4967179;28;20312;-82
2021/09/13 03:52:23;;;;;;;0.93;0.63;;;13.80;99.90;;;;;;4967753;28;20236;-81
2021/09/13 03:54:49;;;;;;;6.90;0.53;;;13.80;99.90;;;;;;4967273;28;20304;-81
2021/09/13 03:57:14;;;;;;;4.93;0.90;;;13.80;99.90;;;;;;4966922;28;20193;-82
2021/09/13 03:59:40;;;;;;;1.63;1.07;;;13.80;99.90;;;;;;4967629;28;20196;-82
2021/09/13 04:02:06;;;;;;;0.80;0.47;;;13.80;99.90;;;;;;4982702;28;20217;-82
2021/09/13 04:04:33;;;;;;;0.97;0.50;;;13.80;99.90;;;;;;4968351;28;20290;-82
2021/09/13 04:12:08;;;;;;;1.27;0.50;;;13.80;99.90;;;;;;4967661;28;20193;-82
2021/09/13 04:14:34;;;;;;;0.37;0.37;;;13.80;99.90;;;;;;4983657;28;20262;-82
2021/09/13 04:16:59;;;;;;;0.93;0.50;;;13.80;99.90;;;;;;4983126;28;20576;-83
2021/09/13 04:19:25;;;;;;;9.83;0.70;;;13.80;99.90;;;;;;4982396;28;20225;-81
2021/09/13 04:21:53;;;;;;;2.93;0.90;;;13.80;99.90;;;;;;4982968;28;20224;-82
2021/09/13 04:24:19;;;;;;;0.53;0.50;;;13.70;99.90;;;;;;4966169;28;20736;-83
2021/09/13 04:26:45;;;;;;;0.90;0.77;;;13.70;99.90;;;;;;4967090;28;20203;-82
2021/09/13 04:29:12;;;;;;;0.73;0.53;;;13.70;99.90;;;;;;4966129;28;20220;-83
2021/09/13 04:31:38;;;;;;;0.57;0.50;;;13.70;99.90;;;;;;4966596;28;20221;-82
2021/09/13 04:34:04;;;;;;;6.50;0.93;;;13.70;99.90;;;;;;4982342;28;20216;-82
2021/09/13 04:36:29;;;;;;;7.67;1.43;;;13.70;99.90;;;;;;4982162;28;20239;-83
2021/09/13 04:38:55;;;;;;;0.83;0.57;;;13.60;99.90;;;;;;4983551;28;20195;-83
2021/09/13 04:41:21;;;;;;;1.23;0.90;;;13.60;99.90;;;;;;4966277;28;20594;-83
2021/09/13 04:43:47;;;;;;;4.60;0.93;;;13.60;99.90;;;;;;4983170;28;20228;-83
2021/09/13 04:46:13;;;;;;;17.37;1.47;;;13.60;99.90;;;;;;4982140;28;20220;-81
2021/09/13 04:48:39;;;;;;;2.77;0.80;;;13.60;99.90;;;;;;4964710;28;20236;-82
2021/09/13 04:51:06;;;;;;;1.27;0.50;;;13.60;99.90;;;;;;4965540;28;20284;-82
2021/09/13 04:53:32;;;;;;;1.00;0.70;;;13.70;99.90;;;;;;4966610;28;20200;-84
2021/09/13 04:55:57;;;;;;;2.23;1.03;;;13.70;99.90;;;;;;4966431;28;20216;-82
2021/09/13 04:58:23;;;;;;;1.53;0.67;;;13.80;99.90;;;;;;4981442;28;20692;-80
2021/09/13 05:00:49;;;;;;;0.50;0.40;;;13.80;99.90;;;;;;4962767;28;20217;-84
2021/09/13 05:03:15;;;;;;;1.53;1.07;;;13.80;99.90;;;;;;4978875;28;20196;-85
2021/09/13 05:05:41;;;;;;;0.93;0.90;;;13.80;99.90;;;;;;4929184;28;20555;-85
2021/09/13 05:08:07;;;;;;;1.43;0.80;;;13.90;99.90;;;;;;4962622;28;20323;-85
2021/09/13 05:10:32;;;;;;;1.27;0.60;;;14.00;99.90;;;;;;4977795;28;20231;-84
2021/09/13 05:12:58;;;;;;;1.70;0.60;;;14.10;99.90;;;;;;4962900;28;20224;-84
2021/09/13 05:15:24;;;;;;;1.27;0.90;;;14.20;99.90;;;;;;4964134;28;20274;-84
2021/09/13 05:17:50;;;;;;;1.00;0.60;;;14.40;99.90;;;;;;4971364;28;20200;-84
2021/09/13 05:20:16;;;;;;;3.07;0.60;;;14.50;99.90;;;;;;4965095;28;20212;-84
2021/09/13 05:22:43;;;;;;;1.20;0.80;;;14.50;99.90;;;;;;4979467;28;20221;-85
2021/09/13 05:25:09;;;;;;;1.50;1.40;;;14.60;99.90;;;;;;4965405;28;20212;-83
2021/09/13 05:27:34;;;;;;;1.00;0.60;;;14.60;99.90;;;;;;4981114;28;20299;-85
2021/09/13 05:30:00;;;;;;;0.97;0.53;;;14.70;99.90;;;;;;4949971;28;20731;-85
2021/09/13 05:32:26;;;;;;;1.73;0.60;;;14.70;99.90;;;;;;4975020;28;20192;-85
2021/09/13 05:34:52;;;;;;;2.00;0.90;;;14.80;99.90;;;;;;4966927;28;20216;-84
2021/09/13 05:37:18;;;;;;;0.53;0.53;;;14.80;99.90;;;;;;4965042;28;20229;-85
2021/09/13 05:39:43;;;;;;;2.70;0.83;;;14.80;99.90;;;;;;4981477;28;20260;-85
2021/09/13 05:42:10;;;;;;;1.20;1.00;;;14.80;99.90;;;;;;4981281;28;20201;-86
2021/09/13 05:44:36;;;;;;;0.93;0.80;;;14.80;99.90;;;;;;4966323;28;20207;-84
2021/09/13 05:47:02;;;;;;;4.73;0.70;;;14.80;99.90;;;;;;4964675;28;20242;-86
2021/09/13 05:49:28;;;;;;;0.90;0.60;;;14.90;99.90;;;;;;4965087;28;20236;-86
2021/09/13 05:51:54;;;;;;;0.30;0.30;;;14.90;99.90;;;;;;4971103;28;20725;-85
2021/09/13 05:54:25;;;;;;;0.57;0.57;;;14.80;99.90;;;;;;4981456;28;20635;-84
2021/09/13 05:56:52;;;;;;;3.73;0.73;;;14.80;99.90;;;;;;4965371;28;20201;-83
2021/09/13 05:59:20;;;;;;;2.77;0.50;;;14.90;99.90;;;;;;4965485;28;20995;-85
2021/09/13 06:01:46;;;;;;;2.00;0.73;;;14.90;99.90;;;;;;4980757;28;20217;-82
2021/09/13 06:04:12;;;;;;;3.50;1.13;;;15.00;99.90;;;;;;4980416;28;20223;-82
2021/09/13 06:06:38;;;;;;;2.47;1.00;;;15.10;99.90;;;;;;4965662;28;20224;-84
2021/09/13 06:09:04;;;;;;;0.70;0.60;;;15.40;99.90;;;;;;4980171;28;20252;-85
2021/09/13 06:11:29;;;;;;;1.37;1.13;;;15.70;99.90;;;;;;4964782;28;20199;-82
2021/09/13 06:13:55;;;;;;;0.67;0.50;;;16.10;99.90;;;;;;4963117;28;20949;-82
2021/09/13 06:16:22;;;;;;;22.70;1.43;;;16.40;99.90;;;;;;4962855;28;20236;-82
2021/09/13 06:18:48;;;;;;;0.70;0.70;;;16.60;99.90;;;;;;4963499;28;20223;-83
2021/09/13 06:21:14;;;;;;;0.50;0.43;;;16.70;99.90;;;;;;4963113;28;20193;-82
2021/09/13 06:23:40;;;;;;;3.07;0.60;;;16.70;99.90;;;;;;4964447;28;20193;-82
2021/09/13 06:26:06;;;;;;;1.43;0.73;;;16.70;99.90;;;;;;4962599;28;20717;-81
2021/09/13 06:28:31;;;;;;;0.77;0.50;;;17.00;99.90;;;;;;4962531;28;20240;-82
2021/09/13 06:30:57;;;;;;;2.73;0.83;;;17.20;99.90;;;;;;4961643;28;20239;-82
2021/09/13 06:33:23;;;;;;;0.70;0.70;;;17.60;99.90;;;;;;4946421;28;20228;-82
2021/09/13 06:35:49;;;;;;;4.30;1.03;;;18.20;99.90;;;;;;4978409;28;20193;-82
2021/09/13 06:38:15;;;;;;;3.43;0.83;;;18.90;99.90;;;;;;4961622;28;20220;-82
2021/09/13 06:40:41;;;;;;;0.80;0.80;;;19.80;99.90;;;;;;4977882;28;20216;-82
2021/09/13 06:43:09;;;;;;;3.03;1.77;;;20.90;99.90;;;;;;4961687;28;20239;-82
2021/09/13 06:45:42;;;;;;;4.10;1.20;;;21.20;99.90;;;;;;4962809;28;20213;-82
2021/09/13 06:48:10;;;;;;;0.93;0.83;;;21.60;99.90;;;;;;4946682;28;20282;-81
2021/09/13 06:50:37;;;;;;;0.87;0.87;;;21.30;99.90;;;;;;4979289;28;20189;-82
2021/09/13 06:53:03;;;;;;;2.73;0.80;;;21.10;99.90;;;;;;4963705;28;20307;-83
2021/09/13 06:55:29;;;;;;;1.17;0.73;;;20.60;99.90;;;;;;4962738;28;20220;-84
2021/09/13 06:57:55;;;;;;;2.23;0.97;;;20.00;99.90;;;;;;4962501;28;20234;-83
2021/09/13 07:00:22;;;;;;;1.60;0.70;;;19.00;99.90;;;;;;4978592;28;20761;-81
2021/09/13 07:02:48;;;;;;;0.60;0.60;;;18.60;99.90;;;;;;4964731;28;20223;-82
2021/09/13 07:05:14;;;;;;;2.10;0.87;;;18.70;99.90;;;;;;4962709;28;20224;-83
2021/09/13 07:07:40;;;;;;;4.03;1.03;;;18.50;99.90;;;;;;4962609;28;20208;-83
2021/09/13 07:10:09;;;;;;;0.80;0.80;;;18.60;99.90;;;;;;4963197;28;20224;-83
2021/09/13 07:12:36;;;;;;;3.20;0.80;;;18.70;99.90;;;;;;4940018;28;20212;-84
2021/09/13 07:15:02;;;;;;;0.63;0.63;;;18.40;99.90;;;;;;4963202;28;20197;-84
2021/09/13 07:17:28;;;;;;;1.73;0.60;;;18.10;99.90;;;;;;4980265;28;20197;-82
2021/09/13 07:19:54;;;;;;;0.97;0.90;;;17.90;99.90;;;;;;4978349;28;20279;-82
2021/09/13 07:22:20;;;;;;;2.80;0.50;;;18.00;99.90;;;;;;4961967;28;20220;-83
2021/09/13 07:24:46;;;;;;;1.00;0.60;;;17.90;99.90;;;;;;4979272;28;20690;-83
2021/09/13 07:27:12;;;;;;;0.77;0.70;;;17.70;99.90;;;;;;4978540;28;20267;-84
2021/09/13 07:29:39;;;;;;;1.40;0.50;;;17.40;99.90;;;;;;4957917;28;20243;-83
2021/09/13 07:32:05;;;;;;;3.37;0.57;;;17.40;99.90;;;;;;4978447;28;20217;-83
2021/09/13 07:34:31;;;;;;;2.37;0.73;;;17.30;99.90;;;;;;4979506;28;20240;-82
2021/09/13 07:36:57;;;;;;;0.43;0.43;;;17.30;99.90;;;;;;4962216;28;20851;-84
2021/09/13 07:39:24;;;;;;;0.40;0.40;;;17.40;99.90;;;;;;4961465;28;20224;-84
2021/09/13 07:41:50;;;;;;;0.93;0.60;;;17.30;99.90;;;;;;4976745;28;20197;-83
2021/09/13 07:44:16;;;;;;;0.40;0.40;;;17.30;99.90;;;;;;4951399;28;20757;-84
2021/09/13 07:46:42;;;;;;;1.20;0.70;;;17.10;99.90;;;;;;4976970;28;21876;-83
2021/09/13 07:49:07;;;;;;;1.73;0.60;;;17.00;99.90;;;;;;4960744;28;20263;-82
2021/09/13 07:51:33;;;;;;;7.47;0.70;;;17.10;99.90;;;;;;4964342;28;20298;-84
2021/09/13 07:53:59;;;;;;;0.67;0.50;;;17.10;99.90;;;;;;4966137;28;20189;-83
2021/09/13 07:56:25;;;;;;;1.07;0.70;;;17.00;99.90;;;;;;4967019;28;20299;-83
2021/09/13 07:58:50;;;;;;;0.50;0.40;;;17.00;99.90;;;;;;4966465;28;20248;-82
2021/09/13 08:01:16;;;;;;;0.70;0.40;;;17.00;99.90;;;;;;4974693;28;20246;-83
2021/09/13 08:03:42;;;;;;;0.90;0.70;;;17.00;99.90;;;;;;4966051;28;20739;-84
2021/09/13 08:06:08;;;;;;;0.60;0.60;;;16.90;99.90;;;;;;4966637;28;20197;-83
2021/09/13 08:08:35;;;;;;;2.40;0.50;;;17.00;99.90;;;;;;4982856;28;21103;-82
2021/09/13 08:11:01;;;;;;;0.70;0.63;;;17.00;99.90;;;;;;4981723;28;20315;-83
2021/09/13 08:13:27;;;;;;;0.50;0.50;;;17.00;99.90;;;;;;4963859;28;20585;-82
2021/09/13 08:15:53;;;;;;;3.93;0.77;;;17.10;99.90;;;;;;4961800;28;20220;-84
2021/09/13 08:18:18;;;;;;;0.50;0.50;;;17.10;99.90;;;;;;4962502;28;20686;-82
2021/09/13 08:20:44;;;;;;;0.83;0.40;;;17.00;99.90;;;;;;4965074;28;20192;-82
2021/09/13 08:23:10;;;;;;;0.50;0.50;;;17.00;99.90;;;;;;4980775;28;20705;-83
2021/09/13 08:25:36;;;;;;;9.53;0.80;;;17.10;99.90;;;;;;4975619;28;20205;-83
2021/09/13 08:28:02;;;;;;;0.53;0.50;;;17.40;99.90;;;;;;4982846;28;20224;-82
2021/09/13 08:30:27;;;;;;;0.80;0.70;;;17.50;99.90;;;;;;4966720;28;20662;-81
2021/09/13 08:32:53;;;;;;;1.77;0.40;;;17.50;99.90;;;;;;4966830;28;20196;-83
2021/09/13 08:35:19;;;;;;;2.90;0.60;;;17.40;99.90;;;;;;4966273;28;20252;-83
2021/09/13 08:37:46;;;;;;;0.60;0.60;;;17.40;99.90;;;;;;4966058;28;20228;-83
2021/09/13 08:40:12;;;;;;;1.93;0.53;;;17.50;99.90;;;;;;4965533;28;20224;-86
2021/09/13 08:42:47;;;;;;;0.60;0.50;;;17.50;99.90;;;;;;4981932;28;20232;-82
2021/09/13 08:45:23;;;;;;;0.50;0.50;;;17.70;99.90;;;;;;4965519;28;20208;-83
2021/09/13 08:48:06;;;;;;;0.40;0.40;;;18.00;99.90;;;;;;4966102;28;20376;-82
2021/09/13 08:53:02;;;;;;;4.70;0.57;;;18.60;99.90;;;;;;4978973;28;20562;-82
2021/09/13 08:55:28;;;;;;;5.03;0.73;;;18.90;99.90;;;;;;4964775;28;20267;-82
2021/09/13 08:57:54;;;;;;;0.93;0.50;;;19.30;99.90;;;;;;4964893;28;20236;-83
2021/09/13 09:00:20;;;;;;;1.03;0.43;;;19.40;99.90;;;;;;4965162;28;20235;-86
2021/09/13 09:02:47;;;;;;;0.50;0.50;;;19.50;99.90;;;;;;4981001;28;20213;-81
2021/09/13 09:05:13;;;;;;;0.50;0.50;;;19.40;99.90;;;;;;4981284;28;20585;-84
2021/09/13 09:07:55;;;;;;;0.40;0.40;;;19.20;99.90;;;;;;4966654;28;20221;-83
2021/09/13 09:10:25;;;;;;;0.30;0.30;;;18.90;99.90;;;;;;4964497;28;20228;-83
2021/09/13 09:13:13;;;;;;;1.93;0.40;;;18.80;99.90;;;;;;4964363;28;20320;-84
2021/09/13 09:16:00;;;;;;;0.77;0.70;;;19.30;99.90;;;;;;4965421;28;20239;-82
2021/09/13 09:18:40;;;;;;;0.30;0.30;;;19.50;99.90;;;;;;4960415;28;20263;-82
2021/09/13 09:21:11;;;;;;;0.50;0.50;;;19.50;99.90;;;;;;4977334;28;20592;-83
2021/09/13 09:24:03;;;;;;;0.97;0.40;;;19.50;99.90;;;;;;4980658;28;20417;-83
2021/09/13 09:26:30;;;;;;;0.30;0.30;;;19.40;99.90;;;;;;4965228;28;20329;-83
2021/09/13 09:28:56;;;;;;;0.40;0.40;;;19.30;99.90;;;;;;4981579;28;20225;-84
2021/09/13 09:31:44;;;;;;;3.30;0.97;;;19.10;99.90;;;;;;4964644;28;20233;-84
2021/09/13 09:34:12;;;;;;;2.03;0.40;;;19.40;99.90;;;;;;4964389;28;20229;-84
2021/09/13 09:36:38;;;;;;;0.40;0.40;;;19.70;99.90;;;;;;4965047;28;20228;-84
2021/09/13 09:39:13;;;;;;;0.97;0.47;;;19.80;99.90;;;;;;4980563;28;20201;-83
2021/09/13 09:41:46;;;;;;;1.90;0.60;;;19.20;99.90;;;;;;4966719;28;20192;-84
2021/09/13 09:44:11;;;;;;;0.30;0.30;;;19.10;99.90;;;;;;4980782;28;20267;-86
2021/09/13 09:46:43;;;;;;;5.10;0.70;;;19.00;99.90;;;;;;4980584;28;20256;-82
2021/09/13 09:49:16;;;;;;;1.23;0.83;;;18.90;99.90;;;;;;4979810;28;20228;-80
2021/09/13 09:51:50;;;;;;;0.47;0.47;;;18.90;99.90;;;;;;4979563;28;20216;-79
2021/09/13 09:54:17;;;;;;;0.43;0.43;;;19.30;99.90;;;;;;4978836;28;20296;-80
2021/09/13 09:56:45;;;;;;;1.80;0.77;;;19.60;99.90;;;;;;4964559;28;20275;-79
2021/09/13 09:59:13;;;;;;;0.50;0.50;;;20.00;99.90;;;;;;4976113;28;20414;-81
2021/09/13 10:01:44;;;;;;;0.80;0.40;;;19.90;99.90;;;;;;4959576;28;20556;-79
2021/09/13 10:04:17;;;;;;;1.23;0.50;;;20.10;99.90;;;;;;4958714;28;20273;-83
2021/09/13 10:06:46;;;;;;;0.53;0.53;;;20.50;99.90;;;;;;4960041;28;20232;-79
2021/09/13 10:09:13;;;;;;;2.67;0.53;;;20.60;99.90;;;;;;4959156;28;20271;-79
2021/09/13 10:11:40;;;;;;;1.67;0.53;;;20.40;99.90;;;;;;4979013;28;20201;-80
2021/09/13 10:14:08;;;;;;;1.97;0.43;;;20.60;99.90;;;;;;4977654;28;20212;-82
2021/09/13 10:16:37;;;;;;;0.70;0.70;;;20.80;99.90;;;;;;4975618;28;20740;-83
2021/09/13 10:19:03;;;;;;;1.63;0.87;;;20.80;99.90;;;;;;4961312;28;20319;-81
2021/09/13 10:21:29;;;;;;;1.47;0.60;;;20.40;99.90;;;;;;4960493;28;20212;-85
2021/09/13 10:23:56;;;;;;;0.80;0.70;;;20.20;99.90;;;;;;4960379;28;20272;-84
2021/09/13 10:26:22;;;;;;;0.60;0.50;;;20.40;99.90;;;;;;4975197;28;20232;-83
2021/09/13 10:29:03;;;;;;;1.83;0.67;;;20.30;99.90;;;;;;4959404;28;20236;-83
2021/09/13 10:31:41;;;;;;;0.50;0.40;;;19.90;99.90;;;;;;4962257;28;20273;-82
2021/09/13 10:34:21;;;;;;;0.67;0.57;;;20.00;99.90;;;;;;4964458;28;20231;-85
2021/09/13 10:37:16;;;;;;;4.47;0.93;;;19.90;99.90;;;;;;4962497;28;20267;-83
2021/09/13 10:39:57;;;;;;;0.70;0.70;;;20.70;99.90;;;;;;4964417;28;20221;-87
2021/09/13 10:42:26;;;;;;;0.80;0.70;;;21.10;99.90;;;;;;4964738;28;20232;-83
2021/09/13 10:45:03;;;;;;;1.00;0.50;;;21.60;99.90;;;;;;4964399;28;20197;-83
2021/09/13 10:47:29;;;;;;;2.87;1.03;;;22.00;99.90;;;;;;4963302;28;20278;-84
2021/09/13 10:50:17;;;;;;;1.40;0.57;;;21.90;99.90;;;;;;4964995;28;20240;-83
2021/09/13 10:52:44;;;;;;;1.37;0.93;;;21.90;99.90;;;;;;4980014;28;20232;-84
2021/09/13 10:55:09;;;;;;;1.23;0.80;;;21.90;99.90;;;;;;4979643;28;20225;-83
2021/09/13 10:58:02;;;;;;;0.50;0.50;;;22.00;99.90;;;;;;4963084;28;20235;-84
2021/09/13 11:00:40;;;;;;;1.10;0.67;;;21.50;99.90;;;;;;4963474;28;20240;-85
2021/09/13 11:06:17;;;;;;;0.53;0.53;;;21.50;99.90;;;;;;4965692;28;20196;-83
2021/09/13 11:08:58;;;;;;;1.70;0.50;;;21.00;99.90;;;;;;4964194;28;20305;-84
2021/09/13 11:11:35;;;;;;;0.77;0.70;;;21.20;99.90;;;;;;4979812;28;20878;-83
2021/09/13 11:14:07;;;;;;;1.40;0.80;;;22.00;99.90;;;;;;4963426;28;20681;-84
2021/09/13 11:16:36;;;;;;;0.50;0.50;;;23.00;99.90;;;;;;4979344;28;20224;-84
2021/09/13 11:19:08;;;;;;;1.17;0.83;;;23.10;99.90;;;;;;4963711;28;20229;-85
2021/09/13 11:21:36;;;;;;;0.77;0.73;;;22.80;99.90;;;;;;4963778;28;20334;-84
2021/09/13 11:24:07;;;;;;;2.30;0.75;;;23.20;99.90;;;;;;4980026;28;20185;-86
2021/09/13 11:26:47;;;;;;;0.50;0.50;;;23.00;99.90;;;;;;4967945;28;20177;-85
2021/09/13 11:29:26;;;;;;;0.93;0.63;;;22.70;99.90;;;;;;4967368;28;20240;-84
2021/09/13 11:31:54;;;;;;;1.27;0.80;;;22.10;99.90;;;;;;4967689;28;20228;-85
2021/09/13 11:34:21;;;;;;;1.53;0.70;;;22.10;99.90;;;;;;4966918;28;20292;-85
2021/09/13 11:36:55;;;;;;;0.77;0.53;;;23.00;99.90;;;;;;4968795;28;20227;-86
2021/09/13 11:39:23;;;;;;;1.40;0.53;;;23.50;99.90;;;;;;4967420;28;20235;-85
2021/09/13 11:42:00;;;;;;;4.07;0.73;;;24.00;99.90;;;;;;4983293;28;20322;-84
2021/09/13 11:44:27;;;;;;;1.17;0.63;;;23.70;99.90;;;;;;4967934;28;20227;-84
2021/09/13 11:46:53;;;;;;;0.50;0.50;;;22.20;99.90;;;;;;4967411;28;21143;-84
2021/09/13 11:49:25;;;;;;;0.43;0.40;;;21.30;99.90;;;;;;4966728;28;20239;-83
2021/09/13 11:52:06;;;;;;;1.80;0.70;;;21.40;99.90;;;;;;4966694;28;20235;-84
2021/09/13 11:54:39;;;;;;;0.87;0.63;;;21.90;99.90;;;;;;4966830;28;20231;-85
2021/09/13 11:57:18;;;;;;;1.67;0.50;;;22.30;99.90;;;;;;4967412;28;20204;-84
2021/09/13 11:59:54;;;;;;;0.60;0.52;;;22.80;99.90;;;;;;4983559;28;20203;-83
2021/09/13 12:02:20;;;;;;;0.50;0.50;;;23.20;99.90;;;;;;4966765;28;20246;-84
2021/09/13 12:04:45;;;;;;;0.50;0.50;;;23.50;99.90;;;;;;4983512;28;20674;-83
2021/09/13 12:07:12;;;;;;;0.35;0.35;;;23.50;99.90;;;;;;4966119;28;20221;-83
2021/09/13 12:09:41;;;;;;;0.70;0.70;;;23.50;99.90;;;;;;4965967;28;20237;-84
2021/09/13 12:12:13;;;;;;;0.75;0.60;;;23.50;99.90;;;;;;4982342;28;20197;-85
2021/09/13 12:14:41;;;;;;;0.50;0.50;;;23.00;99.90;;;;;;4966978;28;20268;-83
2021/09/13 12:17:18;;;;;;;1.30;0.60;;;21.80;99.90;;;;;;4982136;28;20220;-84
2021/09/13 12:19:49;;;;;;;0.63;0.50;;;21.50;99.90;;;;;;4968291;28;20232;-85
2021/09/13 12:22:17;;;;;;;0.95;0.50;;;21.60;99.90;;;;;;4966747;28;20237;-86
2021/09/13 12:24:46;;;;;;;0.70;0.40;;;21.10;99.90;;;;;;4982225;28;20231;-83
2021/09/13 12:27:15;;;;;;;0.50;0.50;;;20.90;99.90;;;;;;4966778;28;20275;-83
2021/09/13 12:30:04;;;;;;;0.93;0.60;;;21.00;99.90;;;;;;4966648;28;20212;-82
2021/09/13 12:32:35;;;;;;;2.03;0.60;;;20.90;99.90;;;;;;4982136;28;20257;-82
2021/09/13 12:35:06;;;;;;;0.47;0.40;;;21.50;99.90;;;;;;4965238;28;20244;-83
2021/09/13 12:37:38;;;;;;;0.60;0.60;;;21.60;99.90;;;;;;4966350;28;20717;-84
2021/09/13 12:40:30;;;;;;;2.30;0.60;;;21.60;99.90;;;;;;4965861;28;20220;-82
2021/09/13 12:43:03;;;;;;;1.03;0.93;;;21.70;99.90;;;;;;4964327;28;20315;-84
2021/09/13 12:45:34;;;;;;;4.97;0.73;;;21.70;99.90;;;;;;4965518;28;20613;-83
2021/09/13 12:48:05;;;;;;;1.57;0.40;;;21.90;99.90;;;;;;4981925;28;20250;-84
2021/09/13 12:50:39;;;;;;;2.50;0.70;;;21.90;99.90;;;;;;4982180;28;20204;-83
2021/09/13 12:53:21;;;;;;;0.70;0.67;;;21.80;99.90;;;;;;4981224;28;20212;-82
2021/09/13 12:55:47;;;;;;;3.03;0.63;;;21.60;99.90;;;;;;4964706;28;20278;-82
2021/09/13 12:58:32;;;;;;;0.87;0.80;;;21.70;99.90;;;;;;4963680;28;20232;-82
2021/09/13 13:01:04;;;;;;;0.73;0.50;;;21.50;99.90;;;;;;4980600;28;20234;-83